Time;durP1;ratioP1;P1;durP2;ratioP2;P2;SDS_P1;SDS_P2;PMS_P1;PMS_P2;Temp;Humidity;BMP_temperature;BMP_pressure;BME280_temperature;BME280_humidity;BME280_pressure;Samples;Min_cycle;Max_cycle;Signal;HPM_P1;HPM_P2
2023/08/18 00:00:48;;;;;;;;;;;22.90;58.00;;;;;;5092126;27;20262;-58
2023/08/18 00:03:15;;;;;;;;;;;22.90;58.10;;;;;;5092346;28;20333;-58
2023/08/18 00:05:42;;;;;;;;;;;22.90;58.10;;;;;;5093208;28;19923;-58
2023/08/18 00:08:09;;;;;;;;;;;22.90;58.00;;;;;;5091267;28;19924;-57
2023/08/18 00:10:35;;;;;;;;;;;22.90;58.10;;;;;;5092012;28;19938;-57
2023/08/18 00:13:02;;;;;;;;;;;22.90;58.10;;;;;;5092472;28;19924;-57
2023/08/18 00:15:30;;;;;;;;;;;22.90;58.10;;;;;;5093016;28;19928;-57
2023/08/18 00:17:57;;;;;;;;;;;22.90;58.10;;;;;;5090186;28;19927;-58
2023/08/18 00:20:24;;;;;;;;;;;22.90;58.10;;;;;;5115865;27;20189;-57
2023/08/18 00:22:51;;;;;;;;;;;22.90;58.10;;;;;;5095283;28;19927;-57
2023/08/18 00:25:18;;;;;;;;;;;22.90;58.10;;;;;;5093788;28;19977;-57
2023/08/18 00:27:44;;;;;;;;;;;22.90;58.10;;;;;;5092209;28;19981;-57
2023/08/18 00:30:12;;;;;;;;;;;22.90;58.10;;;;;;5095877;28;19923;-58
2023/08/18 00:32:40;;;;;;;;;;;22.90;58.10;;;;;;5091308;28;20425;-57
2023/08/18 00:35:07;;;;;;;;;;;22.90;58.10;;;;;;5106502;28;20248;-57
2023/08/18 00:37:33;;;;;;;;;;;22.90;58.10;;;;;;5117309;27;19969;-57
2023/08/18 00:40:00;;;;;;;;;;;22.90;58.10;;;;;;5095718;28;19927;-57
2023/08/18 00:42:27;;;;;;;;;;;22.90;58.10;;;;;;5092550;28;19932;-57
2023/08/18 00:44:53;;;;;;;;;;;22.90;58.10;;;;;;5092333;28;19924;-57
2023/08/18 00:47:20;;;;;;;;;;;22.90;58.10;;;;;;5089416;28;19923;-58
2023/08/18 00:49:48;;;;;;;;;;;22.90;58.10;;;;;;5092920;28;19928;-57
2023/08/18 00:52:17;;;;;;;;;;;22.90;58.10;;;;;;5109410;27;19973;-58
2023/08/18 00:54:44;;;;;;;;;;;22.90;58.10;;;;;;5099592;28;19924;-59
2023/08/18 00:57:11;;;;;;;;;;;22.90;58.10;;;;;;5112217;28;19924;-58
2023/08/18 00:59:38;;;;;;;;;;;22.90;58.10;;;;;;5093586;28;19984;-58
2023/08/18 01:02:04;;;;;;;;;;;22.90;58.70;;;;;;5093360;28;20342;-57
2023/08/18 01:04:31;;;;;;;;;;;22.90;58.10;;;;;;5092773;28;19920;-57
2023/08/18 01:07:00;;;;;;;;;;;22.90;58.10;;;;;;5110505;27;19924;-59
2023/08/18 01:09:26;;;;;;;;;;;22.90;58.10;;;;;;5115461;27;20008;-58
2023/08/18 01:11:56;;;;;;;;;;;22.90;58.20;;;;;;5090936;28;20405;-58
2023/08/18 01:14:26;;;;;;;;;;;22.90;58.20;;;;;;5085421;28;19924;-58
2023/08/18 01:16:56;;;;;;;;;;;22.90;58.20;;;;;;5101634;28;19927;-58
2023/08/18 01:19:22;;;;;;;;;;;22.90;58.20;;;;;;5096592;28;19928;-57
2023/08/18 01:21:50;;;;;;;;;;;22.90;58.20;;;;;;5096373;27;19972;-58
2023/08/18 01:24:18;;;;;;;;;;;22.90;58.20;;;;;;5093456;28;19928;-58
2023/08/18 01:26:45;;;;;;;;;;;22.90;58.20;;;;;;5092001;28;19932;-57
2023/08/18 01:29:11;;;;;;;;;;;22.90;58.20;;;;;;5110245;28;19924;-57
2023/08/18 01:31:38;;;;;;;;;;;22.90;58.20;;;;;;5092637;28;19923;-57
2023/08/18 01:34:06;;;;;;;;;;;22.90;58.20;;;;;;5100387;28;19923;-58
2023/08/18 01:36:34;;;;;;;;;;;22.90;58.20;;;;;;5097226;28;20273;-58
2023/08/18 01:39:01;;;;;;;;;;;22.90;58.20;;;;;;5114034;28;19958;-58
2023/08/18 01:41:29;;;;;;;;;;;22.90;58.20;;;;;;5092804;28;19924;-58
2023/08/18 01:43:56;;;;;;;;;;;22.90;58.20;;;;;;5112915;28;20023;-58
2023/08/18 01:46:23;;;;;;;;;;;22.90;58.30;;;;;;5122380;27;19928;-57
2023/08/18 01:48:50;;;;;;;;;;;22.90;58.30;;;;;;5116266;27;19988;-57
2023/08/18 01:51:16;;;;;;;;;;;22.90;58.30;;;;;;5097008;28;19977;-58
2023/08/18 01:53:43;;;;;;;;;;;22.90;58.30;;;;;;5117844;27;19931;-57
2023/08/18 01:56:10;;;;;;;;;;;22.90;58.30;;;;;;5120533;27;19968;-58
2023/08/18 01:58:38;;;;;;;;;;;22.90;58.30;;;;;;5097191;27;19986;-59
2023/08/18 02:01:05;;;;;;;;;;;22.90;58.30;;;;;;5100023;28;19931;-58
2023/08/18 02:03:32;;;;;;;;;;;22.90;58.30;;;;;;5095236;28;19924;-58
2023/08/18 02:05:59;;;;;;;;;;;22.90;58.30;;;;;;5106203;28;19931;-58
2023/08/18 02:08:25;;;;;;;;;;;22.90;58.30;;;;;;5125223;27;19923;-58
2023/08/18 02:10:52;;;;;;;;;;;22.90;58.40;;;;;;5102059;27;19924;-57
2023/08/18 02:13:19;;;;;;;;;;;22.90;58.40;;;;;;5101260;27;20380;-57
2023/08/18 02:15:47;;;;;;;;;;;22.90;58.40;;;;;;5094700;28;19932;-58
2023/08/18 02:18:14;;;;;;;;;;;22.90;58.40;;;;;;5097591;28;19924;-59
2023/08/18 02:20:40;;;;;;;;;;;22.90;58.40;;;;;;5100312;27;19973;-60
2023/08/18 02:23:07;;;;;;;;;;;22.90;58.40;;;;;;5104624;27;20113;-60
2023/08/18 02:25:34;;;;;;;;;;;22.90;58.50;;;;;;5102478;27;19939;-59
2023/08/18 02:28:01;;;;;;;;;;;22.90;58.50;;;;;;5105164;27;19968;-58
2023/08/18 02:30:27;;;;;;;;;;;22.90;58.50;;;;;;5107290;28;19938;-58
2023/08/18 02:32:55;;;;;;;;;;;22.90;58.50;;;;;;5100183;27;19988;-59
2023/08/18 02:35:22;;;;;;;;;;;22.90;58.50;;;;;;5096298;28;19932;-59
2023/08/18 02:37:49;;;;;;;;;;;22.90;58.50;;;;;;5114078;27;19969;-58
2023/08/18 02:40:17;;;;;;;;;;;22.90;58.60;;;;;;5097287;28;19923;-58
2023/08/18 02:42:43;;;;;;;;;;;22.90;58.60;;;;;;5107189;27;19924;-59
2023/08/18 02:45:10;;;;;;;;;;;22.90;58.60;;;;;;5117225;27;19932;-59
2023/08/18 02:47:39;;;;;;;;;;;22.90;58.60;;;;;;5097352;27;19923;-59
2023/08/18 02:50:07;;;;;;;;;;;22.90;58.60;;;;;;5093547;28;19963;-59
2023/08/18 02:52:34;;;;;;;;;;;22.90;58.70;;;;;;5117850;27;19931;-58
2023/08/18 02:55:01;;;;;;;;;;;22.90;58.60;;;;;;5097254;28;19931;-58
2023/08/18 02:57:28;;;;;;;;;;;22.90;58.70;;;;;;5095894;28;19938;-58
2023/08/18 02:59:54;;;;;;;;;;;22.90;58.70;;;;;;5105174;28;19955;-59
2023/08/18 03:02:23;;;;;;;;;;;22.90;58.70;;;;;;5096972;28;20480;-59
2023/08/18 03:04:50;;;;;;;;;;;22.90;58.70;;;;;;5098035;27;19931;-58
2023/08/18 03:07:18;;;;;;;;;;;22.90;58.70;;;;;;5098652;28;19923;-57
2023/08/18 03:09:45;;;;;;;;;;;22.90;58.70;;;;;;5094375;28;19924;-59
2023/08/18 03:12:12;;;;;;;;;;;22.90;58.70;;;;;;5093824;28;19931;-58
2023/08/18 03:14:38;;;;;;;;;;;22.90;58.70;;;;;;5108737;27;19928;-59
2023/08/18 03:17:06;;;;;;;;;;;22.90;58.70;;;;;;5096054;28;19924;-59
2023/08/18 03:19:33;;;;;;;;;;;22.90;58.70;;;;;;5098569;27;19924;-58
2023/08/18 03:21:59;;;;;;;;;;;22.90;58.80;;;;;;5093574;28;19949;-58
2023/08/18 03:24:28;;;;;;;;;;;22.90;58.70;;;;;;5095764;28;20373;-58
2023/08/18 03:26:55;;;;;;;;;;;22.90;58.80;;;;;;5118022;27;19924;-59
2023/08/18 03:29:22;;;;;;;;;;;22.90;58.80;;;;;;5117439;27;19988;-62
2023/08/18 03:31:49;;;;;;;;;;;22.90;58.90;;;;;;5127144;27;19932;-62
2023/08/18 03:34:16;;;;;;;;;;;22.90;59.30;;;;;;5092547;28;19927;-62
2023/08/18 03:36:43;;;;;;;;;;;22.90;59.30;;;;;;5096833;28;19973;-62
2023/08/18 03:39:12;;;;;;;;;;;22.80;59.90;;;;;;5096897;28;19935;-61
2023/08/18 03:41:40;;;;;;;;;;;22.80;59.40;;;;;;5096198;27;20004;-63
2023/08/18 03:44:07;;;;;;;;;;;22.80;59.60;;;;;;5091432;28;19928;-62
2023/08/18 03:46:34;;;;;;;;;;;22.70;59.60;;;;;;5104197;27;19924;-62
2023/08/18 03:49:00;;;;;;;;;;;22.70;59.80;;;;;;5097346;27;19931;-63
2023/08/18 03:51:27;;;;;;;;;;;22.60;59.70;;;;;;5091347;27;19924;-61
2023/08/18 03:53:54;;;;;;;;;;;22.60;59.90;;;;;;5110915;27;19968;-62
2023/08/18 03:56:21;;;;;;;;;;;22.60;60.10;;;;;;5102824;28;19960;-62
2023/08/18 03:58:49;;;;;;;;;;;22.50;60.20;;;;;;5095763;28;19976;-62
2023/08/18 04:01:16;;;;;;;;;;;22.50;60.40;;;;;;5093262;28;19924;-62
2023/08/18 04:03:43;;;;;;;;;;;22.40;60.60;;;;;;5100822;28;19931;-63
2023/08/18 04:06:12;;;;;;;;;;;22.40;60.50;;;;;;5115512;27;19928;-62
2023/08/18 04:08:40;;;;;;;;;;;22.40;60.60;;;;;;5092001;28;19932;-61
2023/08/18 04:11:06;;;;;;;;;;;22.40;61.10;;;;;;5091443;28;19926;-63
2023/08/18 04:13:34;;;;;;;;;;;22.30;60.80;;;;;;5095183;27;19930;-61
2023/08/18 04:16:02;;;;;;;;;;;22.30;61.10;;;;;;5116663;27;20034;-62
2023/08/18 04:18:29;;;;;;;;;;;22.20;61.30;;;;;;5114176;27;20022;-62
2023/08/18 04:20:56;;;;;;;;;;;22.20;61.30;;;;;;5113257;27;19931;-62
2023/08/18 04:23:23;;;;;;;;;;;22.20;61.70;;;;;;5098601;28;19963;-60
2023/08/18 04:25:50;;;;;;;;;;;22.20;61.70;;;;;;5115535;27;19932;-62
2023/08/18 04:28:17;;;;;;;;;;;22.10;61.70;;;;;;5095550;28;19927;-63
2023/08/18 04:30:45;;;;;;;;;;;22.10;61.80;;;;;;5115846;27;19930;-62
2023/08/18 04:33:14;;;;;;;;;;;22.10;62.30;;;;;;5117383;27;20139;-62
2023/08/18 04:35:41;;;;;;;;;;;22.10;62.50;;;;;;5108358;27;19931;-62
2023/08/18 04:38:07;;;;;;;;;;;22.00;62.30;;;;;;5114817;27;19936;-62
2023/08/18 04:40:34;;;;;;;;;;;22.00;62.20;;;;;;5112670;27;19930;-61
2023/08/18 04:43:01;;;;;;;;;;;22.00;62.50;;;;;;5113380;27;19923;-63
2023/08/18 04:45:28;;;;;;;;;;;22.00;62.60;;;;;;5107131;28;19923;-63
2023/08/18 04:47:55;;;;;;;;;;;21.90;62.60;;;;;;5094277;28;19931;-62
2023/08/18 04:50:23;;;;;;;;;;;21.90;62.80;;;;;;5117088;27;19924;-61
2023/08/18 04:52:50;;;;;;;;;;;21.90;62.80;;;;;;5097595;27;19939;-63
2023/08/18 04:55:17;;;;;;;;;;;21.90;63.00;;;;;;5100257;28;19969;-62
2023/08/18 04:57:44;;;;;;;;;;;21.90;63.00;;;;;;5097209;27;19924;-62
2023/08/18 05:00:11;;;;;;;;;;;21.90;62.90;;;;;;5098990;28;19977;-62
2023/08/18 05:02:38;;;;;;;;;;;21.90;63.10;;;;;;5092028;28;19927;-63
2023/08/18 05:05:05;;;;;;;;;;;21.90;63.20;;;;;;5096048;28;19956;-61
2023/08/18 05:07:33;;;;;;;;;;;21.90;63.30;;;;;;5111175;28;19931;-60
2023/08/18 05:10:01;;;;;;;;;;;21.90;63.40;;;;;;5104095;28;20031;-60
2023/08/18 05:12:27;;;;;;;;;;;21.80;63.20;;;;;;5094736;28;19931;-61
2023/08/18 05:14:54;;;;;;;;;;;21.80;63.40;;;;;;5094230;28;20437;-62
2023/08/18 05:17:21;;;;;;;;;;;21.80;63.50;;;;;;5092271;28;19949;-61
2023/08/18 05:19:48;;;;;;;;;;;21.80;63.50;;;;;;5102492;28;20001;-61
2023/08/18 05:22:14;;;;;;;;;;;21.80;63.60;;;;;;5112635;27;19923;-61
2023/08/18 05:24:42;;;;;;;;;;;21.80;63.80;;;;;;5098453;28;19973;-62
2023/08/18 05:27:09;;;;;;;;;;;21.70;63.80;;;;;;5096348;28;19924;-62
2023/08/18 05:29:36;;;;;;;;;;;21.70;64.00;;;;;;5085887;28;19995;-62
2023/08/18 05:32:03;;;;;;;;;;;21.70;64.00;;;;;;5097483;28;19972;-61
2023/08/18 05:34:30;;;;;;;;;;;21.70;64.10;;;;;;5096321;28;20007;-62
2023/08/18 05:36:56;;;;;;;;;;;21.70;64.20;;;;;;5095703;28;19924;-61
2023/08/18 05:39:23;;;;;;;;;;;21.70;64.30;;;;;;5090526;28;19954;-61
2023/08/18 05:41:51;;;;;;;;;;;21.70;64.40;;;;;;5095538;28;19951;-61
2023/08/18 05:44:18;;;;;;;;;;;21.70;64.40;;;;;;5117972;28;19923;-61
2023/08/18 05:46:45;;;;;;;;;;;21.70;64.60;;;;;;5086107;28;19989;-61
2023/08/18 05:49:12;;;;;;;;;;;21.60;64.60;;;;;;5091353;28;19935;-61
2023/08/18 05:51:42;;;;;;;;;;;21.60;64.70;;;;;;5090361;28;19927;-62
2023/08/18 05:54:09;;;;;;;;;;;21.60;64.80;;;;;;5112376;28;19923;-62
2023/08/18 05:56:36;;;;;;;;;;;21.60;64.90;;;;;;5091465;28;19924;-62
2023/08/18 05:59:05;;;;;;;;;;;21.60;65.00;;;;;;5082106;28;19923;-62
2023/08/18 06:01:31;;;;;;;;;;;21.60;65.00;;;;;;5115842;27;19928;-62
2023/08/18 06:03:58;;;;;;;;;;;21.60;65.10;;;;;;5108988;28;19924;-62
2023/08/18 06:06:25;;;;;;;;;;;21.60;65.10;;;;;;5109621;28;19928;-60
2023/08/18 06:08:52;;;;;;;;;;;21.60;65.30;;;;;;5086925;28;19935;-62
2023/08/18 06:11:19;;;;;;;;;;;21.60;65.30;;;;;;5118688;28;19924;-62
2023/08/18 06:13:45;;;;;;;;;;;21.60;65.40;;;;;;5092388;28;19973;-62
2023/08/18 06:16:13;;;;;;;;;;;21.60;65.60;;;;;;5123219;27;19997;-62
2023/08/18 06:18:40;;;;;;;;;;;21.60;65.60;;;;;;5114833;28;19932;-61
2023/08/18 06:21:08;;;;;;;;;;;21.60;65.70;;;;;;5121959;27;19923;-61
2023/08/18 06:23:35;;;;;;;;;;;21.60;65.70;;;;;;5093135;28;19941;-61
2023/08/18 06:26:01;;;;;;;;;;;21.60;65.80;;;;;;5101567;28;19928;-62
2023/08/18 06:28:28;;;;;;;;;;;21.60;65.80;;;;;;5091699;28;19977;-60
2023/08/18 06:31:03;;;;;;;;;;;21.60;65.90;;;;;;5111588;27;19924;-62
2023/08/18 06:33:31;;;;;;;;;;;21.60;66.00;;;;;;5130589;27;19962;-62
2023/08/18 06:35:58;;;;;;;;;;;21.50;66.00;;;;;;5092158;28;19923;-63
2023/08/18 06:38:25;;;;;;;;;;;21.60;66.20;;;;;;5122837;27;19995;-62
2023/08/18 06:40:52;;;;;;;;;;;21.50;66.10;;;;;;5106367;27;19923;-63
2023/08/18 06:43:19;;;;;;;;;;;21.50;66.20;;;;;;5126452;27;20270;-61
2023/08/18 06:45:45;;;;;;;;;;;21.60;66.20;;;;;;5135560;27;19995;-61
2023/08/18 06:48:12;;;;;;;;;;;21.60;66.00;;;;;;5103472;27;20488;-61
2023/08/18 06:50:41;;;;;;;;;;;21.60;65.90;;;;;;5097649;27;19924;-63
2023/08/18 06:53:07;;;;;;;;;;;21.70;65.60;;;;;;5101636;27;19980;-61
2023/08/18 06:55:34;;;;;;;;;;;21.70;65.50;;;;;;5095338;27;19953;-62
2023/08/18 06:58:02;;;;;;;;;;;21.80;65.40;;;;;;5122156;27;19930;-61
2023/08/18 07:00:30;;;;;;;;;;;21.80;65.20;;;;;;5110167;27;19924;-60
2023/08/18 07:02:56;;;;;;;;;;;21.90;65.20;;;;;;5116119;27;19938;-60
2023/08/18 07:05:25;;;;;;;;;;;21.90;65.80;;;;;;5128856;27;19927;-61
2023/08/18 07:07:55;;;;;;;;;;;21.90;65.00;;;;;;5103631;27;19985;-60
2023/08/18 07:10:22;;;;;;;;;;;22.00;65.00;;;;;;5102079;27;20283;-62
2023/08/18 07:12:49;;;;;;;;;;;22.00;64.80;;;;;;5109620;27;20006;-60
2023/08/18 07:15:15;;;;;;;;;;;22.00;64.80;;;;;;5102937;27;19927;-60
2023/08/18 07:17:42;;;;;;;;;;;22.10;64.80;;;;;;5099668;27;19991;-60
2023/08/18 07:20:12;;;;;;;;;;;22.10;64.80;;;;;;5117568;27;19919;-61
2023/08/18 07:22:39;;;;;;;;;;;22.20;64.70;;;;;;5094340;28;19955;-62
2023/08/18 07:25:09;;;;;;;;;;;22.10;64.50;;;;;;5097074;28;19930;-62
2023/08/18 07:27:36;;;;;;;;;;;22.20;64.60;;;;;;5095782;27;19978;-62
2023/08/18 07:30:04;;;;;;;;;;;22.20;64.50;;;;;;5105591;27;19931;-61
2023/08/18 07:32:30;;;;;;;;;;;22.20;64.40;;;;;;5096162;27;19924;-64
2023/08/18 07:34:57;;;;;;;;;;;22.30;64.50;;;;;;5103877;28;19949;-61
2023/08/18 07:37:24;;;;;;;;;;;22.30;64.40;;;;;;5095660;28;20315;-62
2023/08/18 07:39:51;;;;;;;;;;;22.30;64.40;;;;;;5109657;27;19942;-62
2023/08/18 07:42:20;;;;;;;;;;;22.30;64.30;;;;;;5094155;28;19972;-62
2023/08/18 07:44:47;;;;;;;;;;;22.40;64.30;;;;;;5121944;27;19981;-62
2023/08/18 07:47:14;;;;;;;;;;;22.40;64.30;;;;;;5116562;27;19923;-62
2023/08/18 07:49:41;;;;;;;;;;;22.40;64.30;;;;;;5094601;28;20018;-62
2023/08/18 07:52:07;;;;;;;;;;;22.40;64.20;;;;;;5133463;27;19920;-62
2023/08/18 07:54:34;;;;;;;;;;;22.40;64.20;;;;;;5095592;28;20410;-62
2023/08/18 07:57:03;;;;;;;;;;;22.50;64.30;;;;;;5092235;28;19928;-61
2023/08/18 07:59:31;;;;;;;;;;;22.50;64.20;;;;;;5108853;27;19930;-62
2023/08/18 08:01:58;;;;;;;;;;;22.50;64.20;;;;;;5089601;28;19927;-62
2023/08/18 08:04:25;;;;;;;;;;;22.50;64.10;;;;;;5095364;28;19928;-63
2023/08/18 08:06:55;;;;;;;;;;;22.50;64.00;;;;;;5093865;28;19974;-62
2023/08/18 08:09:23;;;;;;;;;;;22.50;64.00;;;;;;5090494;28;20384;-62
2023/08/18 08:11:50;;;;;;;;;;;22.50;64.00;;;;;;5105603;27;19924;-61
2023/08/18 08:14:17;;;;;;;;;;;22.60;64.00;;;;;;5086291;28;19928;-62
2023/08/18 08:16:45;;;;;;;;;;;22.60;64.00;;;;;;5103716;27;20464;-62
2023/08/18 08:19:13;;;;;;;;;;;22.60;64.00;;;;;;5074329;27;20380;-62
2023/08/18 08:21:40;;;;;;;;;;;22.60;64.00;;;;;;5069364;28;19938;-63
2023/08/18 08:24:07;;;;;;;;;;;22.60;64.00;;;;;;5085325;27;19985;-64
2023/08/18 08:26:34;;;;;;;;;;;22.60;64.00;;;;;;5069906;27;19936;-63
2023/08/18 08:29:01;;;;;;;;;;;22.60;64.00;;;;;;5091847;27;19932;-63
2023/08/18 08:31:28;;;;;;;;;;;22.70;64.10;;;;;;5095039;27;19932;-63
2023/08/18 08:33:56;;;;;;;;;;;22.70;64.00;;;;;;5089467;27;19932;-62
2023/08/18 08:36:23;;;;;;;;;;;22.70;64.00;;;;;;5084185;27;20380;-63
2023/08/18 08:38:49;;;;;;;;;;;22.70;64.00;;;;;;5076061;28;19943;-62
2023/08/18 08:41:16;;;;;;;;;;;22.70;64.00;;;;;;5102252;27;19939;-61
2023/08/18 08:43:43;;;;;;;;;;;22.70;63.90;;;;;;5111540;27;19938;-62
2023/08/18 08:46:10;;;;;;;;;;;22.70;63.80;;;;;;5093930;28;19993;-62
2023/08/18 08:48:38;;;;;;;;;;;22.70;63.80;;;;;;5092283;27;19969;-62
2023/08/18 08:51:06;;;;;;;;;;;22.80;63.90;;;;;;5101839;27;19927;-62
2023/08/18 08:53:36;;;;;;;;;;;22.70;63.80;;;;;;5087935;28;19931;-62
2023/08/18 08:56:03;;;;;;;;;;;22.80;64.00;;;;;;5088354;28;19931;-62
2023/08/18 08:58:31;;;;;;;;;;;22.80;63.90;;;;;;5083380;27;19924;-63
2023/08/18 09:00:59;;;;;;;;;;;22.80;64.00;;;;;;5089856;28;19927;-61
2023/08/18 09:03:25;;;;;;;;;;;22.80;64.00;;;;;;5107210;28;19923;-62
2023/08/18 09:05:52;;;;;;;;;;;22.80;63.90;;;;;;5090358;28;19939;-61
2023/08/18 09:08:20;;;;;;;;;;;22.80;63.90;;;;;;5087574;28;19927;-62
2023/08/18 09:10:47;;;;;;;;;;;22.80;63.80;;;;;;5081818;28;19928;-62
2023/08/18 09:13:14;;;;;;;;;;;22.90;64.00;;;;;;5093194;28;19923;-62
2023/08/18 09:15:41;;;;;;;;;;;22.90;63.90;;;;;;5092083;28;19935;-63
2023/08/18 09:18:08;;;;;;;;;;;22.90;63.90;;;;;;5093525;27;20292;-62
2023/08/18 09:20:35;;;;;;;;;;;22.90;63.90;;;;;;5095234;28;19928;-62
2023/08/18 09:23:02;;;;;;;;;;;22.90;63.90;;;;;;5112462;27;19930;-62
2023/08/18 09:25:30;;;;;;;;;;;22.90;63.90;;;;;;5099061;28;19923;-63
2023/08/18 09:27:57;;;;;;;;;;;22.90;63.90;;;;;;5115721;27;19931;-60
2023/08/18 09:30:24;;;;;;;;;;;22.90;63.90;;;;;;5097762;28;19927;-63
2023/08/18 09:32:51;;;;;;;;;;;22.90;63.90;;;;;;5112967;28;19923;-61
2023/08/18 09:35:19;;;;;;;;;;;22.90;63.90;;;;;;5110236;28;19955;-61
2023/08/18 09:37:46;;;;;;;;;;;22.90;63.90;;;;;;5098174;28;19932;-62
2023/08/18 09:40:13;;;;;;;;;;;23.00;64.00;;;;;;5110411;28;19927;-61
2023/08/18 09:42:41;;;;;;;;;;;23.00;64.00;;;;;;5100150;28;19928;-61
2023/08/18 09:45:09;;;;;;;;;;;23.00;64.00;;;;;;5120599;27;19924;-62
2023/08/18 09:47:36;;;;;;;;;;;23.00;64.00;;;;;;5117704;27;19928;-61
2023/08/18 09:50:02;;;;;;;;;;;23.00;64.00;;;;;;5086626;28;19923;-61
2023/08/18 09:52:33;;;;;;;;;;;23.00;63.90;;;;;;5091808;28;19936;-62
2023/08/18 09:55:00;;;;;;;;;;;23.00;63.90;;;;;;5096030;28;20317;-62
2023/08/18 09:57:29;;;;;;;;;;;23.00;63.90;;;;;;5112937;28;19969;-63
2023/08/18 09:59:58;;;;;;;;;;;23.00;64.00;;;;;;5112957;27;20314;-60
2023/08/18 10:02:27;;;;;;;;;;;23.00;64.00;;;;;;5114188;27;19927;-60
2023/08/18 10:04:54;;;;;;;;;;;23.00;63.90;;;;;;5099864;27;19927;-58
2023/08/18 10:07:21;;;;;;;;;;;23.00;64.00;;;;;;5112612;27;19931;-58
2023/08/18 10:09:48;;;;;;;;;;;23.00;63.90;;;;;;5088451;28;19931;-59
2023/08/18 10:12:14;;;;;;;;;;;23.00;63.90;;;;;;5092779;28;19923;-60
2023/08/18 10:14:41;;;;;;;;;;;23.00;64.00;;;;;;5102058;27;19923;-61
2023/08/18 10:17:09;;;;;;;;;;;23.00;63.90;;;;;;5087137;27;19932;-61
2023/08/18 10:19:46;;;;;;;;;;;23.10;64.10;;;;;;5096890;27;19945;-62
2023/08/18 10:22:14;;;;;;;;;;;23.10;64.30;;;;;;5118976;27;19998;-61
2023/08/18 10:24:41;;;;;;;;;;;23.10;64.10;;;;;;5099770;28;19927;-61
2023/08/18 10:27:10;;;;;;;;;;;23.10;64.10;;;;;;5087068;28;20063;-62
2023/08/18 10:29:37;;;;;;;;;;;23.10;64.10;;;;;;5102294;27;20022;-63
2023/08/18 10:32:07;;;;;;;;;;;23.10;64.10;;;;;;5094017;27;19924;-62
2023/08/18 10:34:35;;;;;;;;;;;23.10;64.10;;;;;;5087408;27;19931;-63
2023/08/18 10:37:03;;;;;;;;;;;23.10;64.10;;;;;;5107550;27;19976;-62
2023/08/18 10:39:36;;;;;;;;;;;23.10;64.10;;;;;;5107546;27;19924;-61
2023/08/18 10:42:09;;;;;;;;;;;23.10;64.10;;;;;;5111432;27;19930;-62
2023/08/18 10:44:36;;;;;;;;;;;23.10;64.10;;;;;;5099344;27;20017;-61
2023/08/18 10:47:03;;;;;;;;;;;23.10;64.20;;;;;;5092080;28;19931;-61
2023/08/18 10:49:30;;;;;;;;;;;23.20;64.20;;;;;;5108591;27;19967;-62
2023/08/18 10:51:58;;;;;;;;;;;23.20;64.20;;;;;;5087402;27;19924;-63
2023/08/18 10:54:25;;;;;;;;;;;23.20;64.20;;;;;;5099827;28;19935;-58
2023/08/18 10:56:52;;;;;;;;;;;23.20;65.00;;;;;;5094133;28;19927;-58
2023/08/18 10:59:19;;;;;;;;;;;23.20;64.20;;;;;;5099309;27;20015;-58
2023/08/18 11:01:45;;;;;;;;;;;23.20;64.30;;;;;;5089520;27;19928;-58
2023/08/18 11:04:14;;;;;;;;;;;23.20;64.30;;;;;;5115768;27;19950;-58
2023/08/18 11:06:41;;;;;;;;;;;23.20;64.30;;;;;;5119724;27;19951;-60
2023/08/18 11:09:09;;;;;;;;;;;23.20;65.00;;;;;;5092131;28;19927;-64
2023/08/18 11:11:37;;;;;;;;;;;23.20;66.20;;;;;;5097565;28;20381;-62
2023/08/18 11:14:04;;;;;;;;;;;23.20;67.60;;;;;;5099524;27;19928;-61
2023/08/18 11:16:31;;;;;;;;;;;23.20;67.70;;;;;;5109555;27;19928;-61
2023/08/18 11:18:58;;;;;;;;;;;23.20;67.80;;;;;;5094892;27;19984;-61
2023/08/18 11:21:24;;;;;;;;;;;23.20;67.80;;;;;;5099808;28;19935;-62
2023/08/18 11:23:51;;;;;;;;;;;23.20;67.90;;;;;;5088210;28;19930;-62
2023/08/18 11:26:20;;;;;;;;;;;23.20;68.50;;;;;;5100794;28;19931;-61
2023/08/18 11:28:46;;;;;;;;;;;23.20;69.00;;;;;;5097099;28;20064;-63
2023/08/18 11:31:13;;;;;;;;;;;23.20;69.40;;;;;;5099386;28;20295;-63
2023/08/18 11:33:40;;;;;;;;;;;23.20;69.00;;;;;;5103043;28;20018;-63
2023/08/18 11:36:07;;;;;;;;;;;23.20;69.30;;;;;;5098384;28;19935;-62
2023/08/18 11:38:34;;;;;;;;;;;23.20;69.50;;;;;;5103924;27;19924;-62
2023/08/18 11:41:01;;;;;;;;;;;23.20;69.50;;;;;;5109842;28;20022;-62
2023/08/18 11:43:29;;;;;;;;;;;23.20;70.10;;;;;;5086687;28;19930;-63
2023/08/18 11:45:56;;;;;;;;;;;23.20;70.20;;;;;;5115151;27;19936;-62
2023/08/18 11:48:23;;;;;;;;;;;23.20;70.50;;;;;;5102628;28;19951;-62
2023/08/18 11:50:55;;;;;;;;;;;23.20;70.30;;;;;;5093258;28;19931;-63
2023/08/18 11:53:22;;;;;;;;;;;23.20;70.30;;;;;;5105298;28;19924;-63
2023/08/18 11:55:50;;;;;;;;;;;23.20;70.60;;;;;;5093415;27;19936;-62
2023/08/18 11:58:16;;;;;;;;;;;23.20;70.70;;;;;;5120419;27;20091;-63
2023/08/18 12:00:46;;;;;;;;;;;23.20;70.80;;;;;;5091411;28;19927;-63
2023/08/18 12:03:20;;;;;;;;;;;23.20;70.70;;;;;;5097612;28;19930;-63
2023/08/18 12:05:47;;;;;;;;;;;23.20;70.90;;;;;;5082255;27;19931;-62
2023/08/18 12:08:13;;;;;;;;;;;23.30;71.30;;;;;;5101963;28;20015;-64
2023/08/18 12:10:42;;;;;;;;;;;23.30;71.30;;;;;;5083424;27;19928;-64
2023/08/18 12:13:09;;;;;;;;;;;23.30;71.40;;;;;;5094907;28;19932;-65
2023/08/18 12:15:35;;;;;;;;;;;23.30;71.40;;;;;;5090664;27;19923;-66
2023/08/18 12:18:04;;;;;;;;;;;23.30;71.60;;;;;;5102375;27;19931;-65
2023/08/18 12:20:31;;;;;;;;;;;23.30;71.40;;;;;;5120028;27;19969;-66
2023/08/18 12:22:57;;;;;;;;;;;23.40;71.30;;;;;;5091945;28;19940;-64
2023/08/18 12:25:25;;;;;;;;;;;23.40;71.30;;;;;;5092703;28;19923;-64
2023/08/18 12:27:52;;;;;;;;;;;23.40;71.50;;;;;;5116409;27;19931;-65
2023/08/18 12:30:19;;;;;;;;;;;23.40;71.60;;;;;;5098327;27;19931;-65
2023/08/18 12:32:46;;;;;;;;;;;23.40;71.90;;;;;;5101114;27;19923;-62
2023/08/18 12:35:14;;;;;;;;;;;23.40;71.60;;;;;;5110968;27;20505;-64
2023/08/18 12:37:41;;;;;;;;;;;23.40;71.50;;;;;;5109444;27;19924;-62
2023/08/18 12:40:10;;;;;;;;;;;23.40;71.40;;;;;;5081542;28;19932;-62
2023/08/18 12:42:37;;;;;;;;;;;23.40;71.80;;;;;;5093162;27;19927;-62
2023/08/18 12:45:04;;;;;;;;;;;23.50;72.00;;;;;;5109012;27;19937;-64
2023/08/18 12:47:30;;;;;;;;;;;23.50;71.60;;;;;;5092171;27;20013;-63
2023/08/18 12:49:57;;;;;;;;;;;23.50;72.40;;;;;;5107081;27;20442;-62
2023/08/18 12:52:25;;;;;;;;;;;23.50;72.10;;;;;;5094836;28;19939;-62
2023/08/18 12:54:52;;;;;;;;;;;23.50;72.10;;;;;;5102117;27;19919;-63
2023/08/18 12:57:19;;;;;;;;;;;23.60;72.30;;;;;;5085446;28;19970;-62
2023/08/18 12:59:46;;;;;;;;;;;23.60;72.50;;;;;;5099366;27;20327;-61
2023/08/18 13:02:12;;;;;;;;;;;23.60;72.50;;;;;;5099743;28;19935;-65
2023/08/18 13:04:39;;;;;;;;;;;23.60;72.20;;;;;;5100930;28;19931;-64
2023/08/18 13:07:06;;;;;;;;;;;23.60;72.50;;;;;;5092371;27;19977;-63
2023/08/18 13:09:34;;;;;;;;;;;23.60;72.80;;;;;;5084191;28;19931;-62
2023/08/18 13:12:01;;;;;;;;;;;23.60;72.60;;;;;;5097965;27;19923;-63
2023/08/18 13:14:29;;;;;;;;;;;23.70;72.90;;;;;;5097549;28;20016;-62
2023/08/18 13:16:55;;;;;;;;;;;23.70;72.60;;;;;;5102643;27;19923;-63
2023/08/18 13:19:22;;;;;;;;;;;23.70;72.60;;;;;;5084286;28;19924;-62
2023/08/18 13:21:49;;;;;;;;;;;23.70;72.30;;;;;;5110472;27;19931;-63
2023/08/18 13:24:16;;;;;;;;;;;23.70;72.50;;;;;;5110793;28;19927;-62
2023/08/18 13:26:44;;;;;;;;;;;23.80;72.70;;;;;;5086814;27;19933;-64
2023/08/18 13:29:11;;;;;;;;;;;23.80;72.60;;;;;;5098088;28;20277;-64
2023/08/18 13:31:37;;;;;;;;;;;23.80;72.70;;;;;;5109110;27;19920;-62
2023/08/18 13:34:04;;;;;;;;;;;23.80;73.00;;;;;;5104420;28;19923;-64
2023/08/18 13:36:31;;;;;;;;;;;23.80;72.80;;;;;;5096509;28;19923;-64
2023/08/18 13:38:58;;;;;;;;;;;23.80;72.80;;;;;;5093347;28;19927;-67
2023/08/18 13:41:25;;;;;;;;;;;23.80;73.00;;;;;;5104657;28;19932;-69
2023/08/18 13:43:53;;;;;;;;;;;23.80;73.00;;;;;;5106515;28;19931;-64
2023/08/18 13:46:20;;;;;;;;;;;23.90;73.00;;;;;;5100700;28;19949;-62
2023/08/18 13:48:47;;;;;;;;;;;23.90;73.00;;;;;;5097089;28;19984;-64
2023/08/18 13:51:13;;;;;;;;;;;23.90;73.10;;;;;;5123804;28;19938;-62
2023/08/18 13:53:40;;;;;;;;;;;23.90;73.20;;;;;;5108708;28;19935;-63
2023/08/18 13:56:07;;;;;;;;;;;23.90;73.20;;;;;;5111243;28;19919;-63
2023/08/18 13:58:33;;;;;;;;;;;23.90;73.20;;;;;;5113932;28;19931;-63
2023/08/18 14:01:03;;;;;;;;;;;24.00;73.50;;;;;;5087577;28;19972;-63
2023/08/18 14:03:30;;;;;;;;;;;24.00;73.30;;;;;;5101346;28;19927;-62
2023/08/18 14:05:57;;;;;;;;;;;24.00;73.20;;;;;;5120172;27;20369;-63
2023/08/18 14:08:24;;;;;;;;;;;24.00;73.30;;;;;;5104661;28;20573;-63
2023/08/18 14:10:51;;;;;;;;;;;24.00;73.20;;;;;;5095917;28;19926;-63
2023/08/18 14:13:17;;;;;;;;;;;24.00;73.10;;;;;;5108116;28;19976;-63
2023/08/18 14:15:44;;;;;;;;;;;24.10;73.10;;;;;;5085248;28;20007;-63